sensor_id;sensor_type;location;lat;lon;timestamp;temperature;humidity
45066;DHT22;30830;53.704;10.004;2023-07-30T00:01:32;16.20;99.90
45066;DHT22;30830;53.704;10.004;2023-07-30T00:03:58;16.20;99.90
45066;DHT22;30830;53.704;10.004;2023-07-30T00:06:24;16.20;99.90
45066;DHT22;30830;53.704;10.004;2023-07-30T00:08:50;16.20;99.90
45066;DHT22;30830;53.704;10.004;2023-07-30T00:11:15;16.20;99.90
45066;DHT22;30830;53.704;10.004;2023-07-30T00:13:41;16.20;99.90
45066;DHT22;30830;53.704;10.004;2023-07-30T00:16:06;16.20;99.90
45066;DHT22;30830;53.704;10.004;2023-07-30T00:18:32;16.20;99.90
45066;DHT22;30830;53.704;10.004;2023-07-30T00:20:57;16.30;99.90
45066;DHT22;30830;53.704;10.004;2023-07-30T00:23:23;16.20;99.90
45066;DHT22;30830;53.704;10.004;2023-07-30T00:25:48;16.30;99.90
45066;DHT22;30830;53.704;10.004;2023-07-30T00:28:14;16.30;99.90
45066;DHT22;30830;53.704;10.004;2023-07-30T00:30:40;16.30;99.90
45066;DHT22;30830;53.704;10.004;2023-07-30T00:33:05;16.30;99.90
45066;DHT22;30830;53.704;10.004;2023-07-30T00:35:33;16.30;99.90
45066;DHT22;30830;53.704;10.004;2023-07-30T00:37:58;16.30;99.90
45066;DHT22;30830;53.704;10.004;2023-07-30T00:40:24;16.30;99.90
45066;DHT22;30830;53.704;10.004;2023-07-30T00:42:49;16.30;99.90
45066;DHT22;30830;53.704;10.004;2023-07-30T00:45:15;16.40;99.90
45066;DHT22;30830;53.704;10.004;2023-07-30T00:47:41;16.30;99.90
45066;DHT22;30830;53.704;10.004;2023-07-30T00:50:08;16.40;99.90
45066;DHT22;30830;53.704;10.004;2023-07-30T00:52:34;16.40;99.90
45066;DHT22;30830;53.704;10.004;2023-07-30T00:55:02;16.40;99.90
45066;DHT22;30830;53.704;10.004;2023-07-30T00:57:28;16.40;99.90
45066;DHT22;30830;53.704;10.004;2023-07-30T00:59:55;16.40;99.90
45066;DHT22;30830;53.704;10.004;2023-07-30T01:02:21;16.40;99.90
45066;DHT22;30830;53.704;10.004;2023-07-30T01:04:47;16.40;99.90
45066;DHT22;30830;53.704;10.004;2023-07-30T01:07:13;16.40;99.90
45066;DHT22;30830;53.704;10.004;2023-07-30T01:09:39;16.40;99.90
45066;DHT22;30830;53.704;10.004;2023-07-30T01:12:05;16.40;99.90
45066;DHT22;30830;53.704;10.004;2023-07-30T01:14:32;16.40;99.90
45066;DHT22;30830;53.704;10.004;2023-07-30T01:16:58;16.40;99.90
45066;DHT22;30830;53.704;10.004;2023-07-30T01:19:23;16.40;99.90
45066;DHT22;30830;53.704;10.004;2023-07-30T01:21:49;16.30;99.90
45066;DHT22;30830;53.704;10.004;2023-07-30T01:24:14;16.30;99.90
45066;DHT22;30830;53.704;10.004;2023-07-30T01:26:53;16.30;99.90
45066;DHT22;30830;53.704;10.004;2023-07-30T01:29:28;16.30;99.90
45066;DHT22;30830;53.704;10.004;2023-07-30T01:31:56;16.30;99.90
45066;DHT22;30830;53.704;10.004;2023-07-30T01:34:27;16.30;99.90
45066;DHT22;30830;53.704;10.004;2023-07-30T01:36:53;16.30;99.90
45066;DHT22;30830;53.704;10.004;2023-07-30T01:39:20;16.30;99.90
45066;DHT22;30830;53.704;10.004;2023-07-30T01:41:46;16.20;99.90
45066;DHT22;30830;53.704;10.004;2023-07-30T01:44:11;16.20;99.90
45066;DHT22;30830;53.704;10.004;2023-07-30T01:46:37;16.20;99.90
45066;DHT22;30830;53.704;10.004;2023-07-30T01:49:02;16.10;99.90
45066;DHT22;30830;53.704;10.004;2023-07-30T01:51:28;16.10;99.90
45066;DHT22;30830;53.704;10.004;2023-07-30T01:53:54;16.10;99.90
45066;DHT22;30830;53.704;10.004;2023-07-30T01:56:19;16.00;99.90
45066;DHT22;30830;53.704;10.004;2023-07-30T01:58:45;16.00;99.90
45066;DHT22;30830;53.704;10.004;2023-07-30T02:01:11;16.00;99.90
45066;DHT22;30830;53.704;10.004;2023-07-30T02:03:36;15.90;99.90
45066;DHT22;30830;53.704;10.004;2023-07-30T02:06:02;15.90;99.90
45066;DHT22;30830;53.704;10.004;2023-07-30T02:08:27;15.90;99.90
45066;DHT22;30830;53.704;10.004;2023-07-30T02:10:59;15.80;99.90
45066;DHT22;30830;53.704;10.004;2023-07-30T02:13:25;15.80;99.90
45066;DHT22;30830;53.704;10.004;2023-07-30T02:15:51;15.80;99.90
45066;DHT22;30830;53.704;10.004;2023-07-30T02:18:17;15.80;99.90
45066;DHT22;30830;53.704;10.004;2023-07-30T02:20:42;15.70;99.90
45066;DHT22;30830;53.704;10.004;2023-07-30T02:23:08;15.70;99.90
45066;DHT22;30830;53.704;10.004;2023-07-30T02:25:34;15.70;99.90
45066;DHT22;30830;53.704;10.004;2023-07-30T02:28:00;15.70;99.90
45066;DHT22;30830;53.704;10.004;2023-07-30T02:30:27;15.60;99.90
45066;DHT22;30830;53.704;10.004;2023-07-30T02:32:52;15.60;99.90
45066;DHT22;30830;53.704;10.004;2023-07-30T02:35:18;15.60;99.90
45066;DHT22;30830;53.704;10.004;2023-07-30T02:37:44;15.50;99.90
45066;DHT22;30830;53.704;10.004;2023-07-30T02:40:10;15.60;99.90
45066;DHT22;30830;53.704;10.004;2023-07-30T02:42:35;15.50;99.90
45066;DHT22;30830;53.704;10.004;2023-07-30T02:45:01;15.50;99.90
45066;DHT22;30830;53.704;10.004;2023-07-30T02:47:26;15.40;99.90
45066;DHT22;30830;53.704;10.004;2023-07-30T02:49:53;15.40;99.90
45066;DHT22;30830;53.704;10.004;2023-07-30T02:52:18;15.50;99.90
45066;DHT22;30830;53.704;10.004;2023-07-30T02:54:44;15.40;99.90
45066;DHT22;30830;53.704;10.004;2023-07-30T02:57:09;15.40;99.90
45066;DHT22;30830;53.704;10.004;2023-07-30T02:59:36;15.40;99.90
45066;DHT22;30830;53.704;10.004;2023-07-30T03:02:03;15.40;99.90
45066;DHT22;30830;53.704;10.004;2023-07-30T03:04:30;15.40;99.90
45066;DHT22;30830;53.704;10.004;2023-07-30T03:06:56;15.40;99.90
45066;DHT22;30830;53.704;10.004;2023-07-30T03:09:21;15.40;99.90
45066;DHT22;30830;53.704;10.004;2023-07-30T03:11:49;15.40;99.90
45066;DHT22;30830;53.704;10.004;2023-07-30T03:14:14;15.40;99.90
45066;DHT22;30830;53.704;10.004;2023-07-30T03:16:40;15.40;99.90
45066;DHT22;30830;53.704;10.004;2023-07-30T03:19:06;15.30;99.90
45066;DHT22;30830;53.704;10.004;2023-07-30T03:21:31;15.30;99.90
45066;DHT22;30830;53.704;10.004;2023-07-30T03:23:57;15.30;99.90
45066;DHT22;30830;53.704;10.004;2023-07-30T03:26:23;15.30;99.90
45066;DHT22;30830;53.704;10.004;2023-07-30T03:28:48;15.30;99.90
45066;DHT22;30830;53.704;10.004;2023-07-30T03:31:14;15.20;99.90
45066;DHT22;30830;53.704;10.004;2023-07-30T03:33:40;15.20;99.90
45066;DHT22;30830;53.704;10.004;2023-07-30T03:36:12;15.20;99.90
45066;DHT22;30830;53.704;10.004;2023-07-30T03:38:42;15.20;99.90
45066;DHT22;30830;53.704;10.004;2023-07-30T03:41:08;15.20;99.90
45066;DHT22;30830;53.704;10.004;2023-07-30T03:43:34;15.10;99.90
45066;DHT22;30830;53.704;10.004;2023-07-30T03:45:59;15.10;99.90
45066;DHT22;30830;53.704;10.004;2023-07-30T03:48:25;15.10;99.90
45066;DHT22;30830;53.704;10.004;2023-07-30T03:50:55;15.10;99.90
45066;DHT22;30830;53.704;10.004;2023-07-30T03:53:21;15.00;99.90
45066;DHT22;30830;53.704;10.004;2023-07-30T03:55:46;15.00;99.90
45066;DHT22;30830;53.704;10.004;2023-07-30T03:58:12;15.00;99.90
45066;DHT22;30830;53.704;10.004;2023-07-30T04:00:38;15.00;99.90
45066;DHT22;30830;53.704;10.004;2023-07-30T04:03:03;15.00;99.90
45066;DHT22;30830;53.704;10.004;2023-07-30T04:05:30;15.00;99.90
45066;DHT22;30830;53.704;10.004;2023-07-30T04:07:55;15.00;99.90
45066;DHT22;30830;53.704;10.004;2023-07-30T04:10:21;15.00;99.90
45066;DHT22;30830;53.704;10.004;2023-07-30T04:12:47;15.00;99.90
45066;DHT22;30830;53.704;10.004;2023-07-30T04:15:12;14.90;99.90
45066;DHT22;30830;53.704;10.004;2023-07-30T04:17:38;14.90;99.90
45066;DHT22;30830;53.704;10.004;2023-07-30T04:20:04;14.90;99.90
45066;DHT22;30830;53.704;10.004;2023-07-30T04:22:30;15.00;99.90
45066;DHT22;30830;53.704;10.004;2023-07-30T04:24:56;15.00;99.90
45066;DHT22;30830;53.704;10.004;2023-07-30T04:27:22;15.00;99.90
45066;DHT22;30830;53.704;10.004;2023-07-30T04:29:47;15.00;99.90
45066;DHT22;30830;53.704;10.004;2023-07-30T04:32:14;15.00;99.90
45066;DHT22;30830;53.704;10.004;2023-07-30T04:34:40;15.00;99.90
45066;DHT22;30830;53.704;10.004;2023-07-30T04:37:06;15.00;99.90
45066;DHT22;30830;53.704;10.004;2023-07-30T04:39:35;15.00;99.90
45066;DHT22;30830;53.704;10.004;2023-07-30T04:42:03;15.10;99.90
45066;DHT22;30830;53.704;10.004;2023-07-30T04:44:29;15.10;99.90
45066;DHT22;30830;53.704;10.004;2023-07-30T04:46:54;15.10;99.90
45066;DHT22;30830;53.704;10.004;2023-07-30T04:49:20;15.10;99.90
45066;DHT22;30830;53.704;10.004;2023-07-30T04:51:46;15.10;99.90
45066;DHT22;30830;53.704;10.004;2023-07-30T04:54:11;15.20;99.90
45066;DHT22;30830;53.704;10.004;2023-07-30T04:56:37;15.20;99.90
45066;DHT22;30830;53.704;10.004;2023-07-30T04:59:02;15.20;99.90
45066;DHT22;30830;53.704;10.004;2023-07-30T05:01:28;15.30;99.90
45066;DHT22;30830;53.704;10.004;2023-07-30T05:03:54;15.30;99.90
45066;DHT22;30830;53.704;10.004;2023-07-30T05:06:20;15.40;99.90
45066;DHT22;30830;53.704;10.004;2023-07-30T05:08:46;15.40;99.90
45066;DHT22;30830;53.704;10.004;2023-07-30T05:11:11;15.50;99.90
45066;DHT22;30830;53.704;10.004;2023-07-30T05:13:37;15.50;99.90
45066;DHT22;30830;53.704;10.004;2023-07-30T05:16:03;15.60;99.90
45066;DHT22;30830;53.704;10.004;2023-07-30T05:18:28;15.60;99.90
45066;DHT22;30830;53.704;10.004;2023-07-30T05:20:55;15.70;99.90
45066;DHT22;30830;53.704;10.004;2023-07-30T05:23:20;15.70;99.90
45066;DHT22;30830;53.704;10.004;2023-07-30T05:25:46;15.70;99.90
45066;DHT22;30830;53.704;10.004;2023-07-30T05:28:12;15.80;99.90
45066;DHT22;30830;53.704;10.004;2023-07-30T05:30:38;15.80;99.90
45066;DHT22;30830;53.704;10.004;2023-07-30T05:33:03;15.80;99.90
45066;DHT22;30830;53.704;10.004;2023-07-30T05:35:29;15.80;99.90
45066;DHT22;30830;53.704;10.004;2023-07-30T05:37:55;15.90;99.90
45066;DHT22;30830;53.704;10.004;2023-07-30T05:40:21;15.90;99.90
45066;DHT22;30830;53.704;10.004;2023-07-30T05:42:47;16.00;99.90
45066;DHT22;30830;53.704;10.004;2023-07-30T05:45:13;15.90;99.90
45066;DHT22;30830;53.704;10.004;2023-07-30T05:47:38;16.00;99.90
45066;DHT22;30830;53.704;10.004;2023-07-30T05:50:04;16.10;99.90
45066;DHT22;30830;53.704;10.004;2023-07-30T05:52:30;16.10;99.90
45066;DHT22;30830;53.704;10.004;2023-07-30T05:54:56;16.20;99.90
45066;DHT22;30830;53.704;10.004;2023-07-30T05:57:21;16.20;99.90
45066;DHT22;30830;53.704;10.004;2023-07-30T05:59:47;16.20;99.90
45066;DHT22;30830;53.704;10.004;2023-07-30T06:02:12;16.30;99.90
45066;DHT22;30830;53.704;10.004;2023-07-30T06:04:38;16.30;99.90
45066;DHT22;30830;53.704;10.004;2023-07-30T06:07:04;16.40;99.90
45066;DHT22;30830;53.704;10.004;2023-07-30T06:09:29;16.40;99.90
45066;DHT22;30830;53.704;10.004;2023-07-30T06:11:57;16.40;99.90
45066;DHT22;30830;53.704;10.004;2023-07-30T06:14:26;16.40;99.90
45066;DHT22;30830;53.704;10.004;2023-07-30T06:16:53;16.50;99.90
45066;DHT22;30830;53.704;10.004;2023-07-30T06:19:18;16.40;99.90
45066;DHT22;30830;53.704;10.004;2023-07-30T06:21:45;16.50;99.90
45066;DHT22;30830;53.704;10.004;2023-07-30T06:24:10;16.50;99.90
45066;DHT22;30830;53.704;10.004;2023-07-30T06:26:36;16.60;99.90
45066;DHT22;30830;53.704;10.004;2023-07-30T06:29:02;16.70;99.90
45066;DHT22;30830;53.704;10.004;2023-07-30T06:31:27;16.60;99.90
45066;DHT22;30830;53.704;10.004;2023-07-30T06:33:53;16.70;99.90
45066;DHT22;30830;53.704;10.004;2023-07-30T06:36:18;16.70;99.90
45066;DHT22;30830;53.704;10.004;2023-07-30T06:38:44;16.80;99.90
45066;DHT22;30830;53.704;10.004;2023-07-30T06:41:09;16.90;99.90
45066;DHT22;30830;53.704;10.004;2023-07-30T06:43:35;16.90;99.90
45066;DHT22;30830;53.704;10.004;2023-07-30T06:46:01;16.90;99.90
45066;DHT22;30830;53.704;10.004;2023-07-30T06:48:26;16.90;99.90
45066;DHT22;30830;53.704;10.004;2023-07-30T06:50:52;17.00;99.90
45066;DHT22;30830;53.704;10.004;2023-07-30T06:53:17;17.00;99.90
45066;DHT22;30830;53.704;10.004;2023-07-30T06:55:43;17.10;99.90
45066;DHT22;30830;53.704;10.004;2023-07-30T06:58:09;17.20;99.90
45066;DHT22;30830;53.704;10.004;2023-07-30T07:00:35;17.30;99.90
45066;DHT22;30830;53.704;10.004;2023-07-30T07:03:01;17.30;99.90
45066;DHT22;30830;53.704;10.004;2023-07-30T07:05:26;17.30;99.90
45066;DHT22;30830;53.704;10.004;2023-07-30T07:07:52;17.40;99.90
45066;DHT22;30830;53.704;10.004;2023-07-30T07:10:17;17.50;99.90
45066;DHT22;30830;53.704;10.004;2023-07-30T07:12:43;17.50;99.90
45066;DHT22;30830;53.704;10.004;2023-07-30T07:15:09;17.50;99.90
45066;DHT22;30830;53.704;10.004;2023-07-30T07:17:34;17.50;99.90
45066;DHT22;30830;53.704;10.004;2023-07-30T07:20:00;17.40;99.90
45066;DHT22;30830;53.704;10.004;2023-07-30T07:22:26;17.40;99.90
45066;DHT22;30830;53.704;10.004;2023-07-30T07:24:52;17.40;99.90
45066;DHT22;30830;53.704;10.004;2023-07-30T07:27:18;17.50;99.90
45066;DHT22;30830;53.704;10.004;2023-07-30T07:29:44;17.50;99.90
45066;DHT22;30830;53.704;10.004;2023-07-30T07:32:10;17.70;99.90
45066;DHT22;30830;53.704;10.004;2023-07-30T07:34:35;17.70;99.90
45066;DHT22;30830;53.704;10.004;2023-07-30T07:37:01;17.80;99.90
45066;DHT22;30830;53.704;10.004;2023-07-30T07:39:27;17.80;99.90
45066;DHT22;30830;53.704;10.004;2023-07-30T07:41:53;17.90;99.90
45066;DHT22;30830;53.704;10.004;2023-07-30T07:44:18;17.90;99.90
45066;DHT22;30830;53.704;10.004;2023-07-30T07:46:44;18.00;99.90
45066;DHT22;30830;53.704;10.004;2023-07-30T07:49:09;18.10;99.90
45066;DHT22;30830;53.704;10.004;2023-07-30T07:51:35;18.20;99.90
45066;DHT22;30830;53.704;10.004;2023-07-30T07:54:00;18.40;99.90
45066;DHT22;30830;53.704;10.004;2023-07-30T07:56:26;18.50;99.90
45066;DHT22;30830;53.704;10.004;2023-07-30T07:58:51;18.50;99.90
45066;DHT22;30830;53.704;10.004;2023-07-30T08:01:17;18.70;99.90
45066;DHT22;30830;53.704;10.004;2023-07-30T08:03:44;18.80;99.90
45066;DHT22;30830;53.704;10.004;2023-07-30T08:06:10;18.90;99.90
45066;DHT22;30830;53.704;10.004;2023-07-30T08:08:35;19.00;99.90
45066;DHT22;30830;53.704;10.004;2023-07-30T08:11:07;19.00;99.90
45066;DHT22;30830;53.704;10.004;2023-07-30T08:13:34;19.10;99.90
45066;DHT22;30830;53.704;10.004;2023-07-30T08:15:59;19.10;99.90
45066;DHT22;30830;53.704;10.004;2023-07-30T08:18:26;19.20;99.90
45066;DHT22;30830;53.704;10.004;2023-07-30T08:20:51;19.30;99.90
45066;DHT22;30830;53.704;10.004;2023-07-30T08:23:17;19.40;99.90
45066;DHT22;30830;53.704;10.004;2023-07-30T08:25:42;19.50;99.90
45066;DHT22;30830;53.704;10.004;2023-07-30T08:28:08;19.60;99.90
45066;DHT22;30830;53.704;10.004;2023-07-30T08:30:34;19.70;99.90
45066;DHT22;30830;53.704;10.004;2023-07-30T08:33:01;19.80;99.90
45066;DHT22;30830;53.704;10.004;2023-07-30T08:35:26;20.00;99.90
45066;DHT22;30830;53.704;10.004;2023-07-30T08:37:52;20.10;99.90
45066;DHT22;30830;53.704;10.004;2023-07-30T08:40:19;20.00;99.90
45066;DHT22;30830;53.704;10.004;2023-07-30T08:42:46;20.00;99.90
45066;DHT22;30830;53.704;10.004;2023-07-30T08:45:11;20.10;99.90
45066;DHT22;30830;53.704;10.004;2023-07-30T08:47:39;20.20;99.90
45066;DHT22;30830;53.704;10.004;2023-07-30T08:50:05;20.30;99.90
45066;DHT22;30830;53.704;10.004;2023-07-30T08:52:32;20.40;99.90
45066;DHT22;30830;53.704;10.004;2023-07-30T08:55:00;20.50;99.90
45066;DHT22;30830;53.704;10.004;2023-07-30T08:57:28;20.60;99.90
45066;DHT22;30830;53.704;10.004;2023-07-30T09:00:08;20.70;99.90
45066;DHT22;30830;53.704;10.004;2023-07-30T09:02:38;20.60;99.90
45066;DHT22;30830;53.704;10.004;2023-07-30T09:05:05;20.50;99.90
45066;DHT22;30830;53.704;10.004;2023-07-30T09:07:31;20.40;99.90
45066;DHT22;30830;53.704;10.004;2023-07-30T09:09:57;20.30;99.90
45066;DHT22;30830;53.704;10.004;2023-07-30T09:12:32;20.30;99.90
45066;DHT22;30830;53.704;10.004;2023-07-30T09:14:58;20.30;99.90
45066;DHT22;30830;53.704;10.004;2023-07-30T09:17:24;20.30;99.90
45066;DHT22;30830;53.704;10.004;2023-07-30T09:19:51;20.30;99.90
45066;DHT22;30830;53.704;10.004;2023-07-30T09:22:34;20.30;99.90
45066;DHT22;30830;53.704;10.004;2023-07-30T09:25:03;20.30;99.90
45066;DHT22;30830;53.704;10.004;2023-07-30T09:27:29;20.30;99.90
45066;DHT22;30830;53.704;10.004;2023-07-30T09:29:59;20.30;99.90
45066;DHT22;30830;53.704;10.004;2023-07-30T09:32:31;20.30;99.90
45066;DHT22;30830;53.704;10.004;2023-07-30T09:35:08;20.30;99.90
45066;DHT22;30830;53.704;10.004;2023-07-30T09:37:38;20.40;99.90
45066;DHT22;30830;53.704;10.004;2023-07-30T09:40:11;20.40;99.90
45066;DHT22;30830;53.704;10.004;2023-07-30T09:42:38;20.40;99.90
45066;DHT22;30830;53.704;10.004;2023-07-30T09:45:06;20.40;99.90
45066;DHT22;30830;53.704;10.004;2023-07-30T09:47:38;20.50;99.90
45066;DHT22;30830;53.704;10.004;2023-07-30T09:50:03;20.50;99.90
45066;DHT22;30830;53.704;10.004;2023-07-30T09:52:30;20.40;99.90
45066;DHT22;30830;53.704;10.004;2023-07-30T09:54:57;20.30;99.90
45066;DHT22;30830;53.704;10.004;2023-07-30T09:57:23;20.30;99.90
45066;DHT22;30830;53.704;10.004;2023-07-30T09:59:48;20.30;99.90
45066;DHT22;30830;53.704;10.004;2023-07-30T10:02:15;20.20;99.90
45066;DHT22;30830;53.704;10.004;2023-07-30T10:04:43;20.20;99.90
45066;DHT22;30830;53.704;10.004;2023-07-30T10:07:16;20.20;99.90
45066;DHT22;30830;53.704;10.004;2023-07-30T10:09:45;20.20;99.90
45066;DHT22;30830;53.704;10.004;2023-07-30T10:12:16;20.20;99.90
45066;DHT22;30830;53.704;10.004;2023-07-30T10:14:47;20.30;99.90
45066;DHT22;30830;53.704;10.004;2023-07-30T10:17:12;20.40;99.90
45066;DHT22;30830;53.704;10.004;2023-07-30T10:19:38;20.60;99.90
45066;DHT22;30830;53.704;10.004;2023-07-30T10:24:39;20.70;99.90
45066;DHT22;30830;53.704;10.004;2023-07-30T10:27:06;20.80;99.90
45066;DHT22;30830;53.704;10.004;2023-07-30T10:29:34;20.70;99.90
45066;DHT22;30830;53.704;10.004;2023-07-30T10:32:01;20.60;99.90
45066;DHT22;30830;53.704;10.004;2023-07-30T10:34:44;20.40;99.90
45066;DHT22;30830;53.704;10.004;2023-07-30T10:37:10;20.30;99.90
45066;DHT22;30830;53.704;10.004;2023-07-30T10:39:35;20.30;99.90
45066;DHT22;30830;53.704;10.004;2023-07-30T10:42:03;20.40;99.90
45066;DHT22;30830;53.704;10.004;2023-07-30T10:44:31;20.50;99.90
45066;DHT22;30830;53.704;10.004;2023-07-30T10:46:58;20.50;99.90
45066;DHT22;30830;53.704;10.004;2023-07-30T10:49:25;20.60;99.90
45066;DHT22;30830;53.704;10.004;2023-07-30T10:51:52;20.60;99.90
45066;DHT22;30830;53.704;10.004;2023-07-30T10:54:18;20.50;99.90
45066;DHT22;30830;53.704;10.004;2023-07-30T10:56:45;20.40;99.90
45066;DHT22;30830;53.704;10.004;2023-07-30T10:59:12;20.30;99.90
45066;DHT22;30830;53.704;10.004;2023-07-30T11:01:41;20.20;99.90
45066;DHT22;30830;53.704;10.004;2023-07-30T11:04:13;20.10;99.90
45066;DHT22;30830;53.704;10.004;2023-07-30T11:06:44;20.00;99.90
45066;DHT22;30830;53.704;10.004;2023-07-30T11:09:22;20.10;99.90
45066;DHT22;30830;53.704;10.004;2023-07-30T11:11:48;20.00;99.90
45066;DHT22;30830;53.704;10.004;2023-07-30T11:14:15;20.10;99.90
45066;DHT22;30830;53.704;10.004;2023-07-30T11:16:50;20.10;99.90
45066;DHT22;30830;53.704;10.004;2023-07-30T11:19:16;20.10;99.90
45066;DHT22;30830;53.704;10.004;2023-07-30T11:21:47;20.10;99.90
45066;DHT22;30830;53.704;10.004;2023-07-30T11:24:12;20.10;99.90
45066;DHT22;30830;53.704;10.004;2023-07-30T11:26:38;20.00;99.90
45066;DHT22;30830;53.704;10.004;2023-07-30T11:29:19;20.10;99.90
45066;DHT22;30830;53.704;10.004;2023-07-30T11:31:46;20.10;99.90
45066;DHT22;30830;53.704;10.004;2023-07-30T11:34:13;20.10;99.90
45066;DHT22;30830;53.704;10.004;2023-07-30T11:36:40;20.10;99.90
45066;DHT22;30830;53.704;10.004;2023-07-30T11:39:07;20.20;99.90
45066;DHT22;30830;53.704;10.004;2023-07-30T11:41:33;20.20;99.90
45066;DHT22;30830;53.704;10.004;2023-07-30T11:43:59;20.30;99.90
45066;DHT22;30830;53.704;10.004;2023-07-30T11:46:25;20.50;99.90
45066;DHT22;30830;53.704;10.004;2023-07-30T11:48:53;20.60;99.90
45066;DHT22;30830;53.704;10.004;2023-07-30T11:51:23;20.60;99.90
45066;DHT22;30830;53.704;10.004;2023-07-30T11:53:56;20.70;99.90
45066;DHT22;30830;53.704;10.004;2023-07-30T11:58:53;20.70;99.90
45066;DHT22;30830;53.704;10.004;2023-07-30T12:01:19;20.70;99.90
45066;DHT22;30830;53.704;10.004;2023-07-30T12:03:44;20.80;99.90
45066;DHT22;30830;53.704;10.004;2023-07-30T12:06:11;20.80;99.90
45066;DHT22;30830;53.704;10.004;2023-07-30T12:08:37;20.80;99.90
45066;DHT22;30830;53.704;10.004;2023-07-30T12:11:05;20.70;99.90
45066;DHT22;30830;53.704;10.004;2023-07-30T12:13:31;20.80;99.90
45066;DHT22;30830;53.704;10.004;2023-07-30T12:15:57;20.70;99.90
45066;DHT22;30830;53.704;10.004;2023-07-30T12:18:26;20.70;99.90
45066;DHT22;30830;53.704;10.004;2023-07-30T12:20:53;20.90;99.90
45066;DHT22;30830;53.704;10.004;2023-07-30T12:23:20;20.90;99.90
45066;DHT22;30830;53.704;10.004;2023-07-30T12:25:46;20.90;99.90
45066;DHT22;30830;53.704;10.004;2023-07-30T12:28:13;20.80;99.90
45066;DHT22;30830;53.704;10.004;2023-07-30T12:30:38;20.90;99.90
45066;DHT22;30830;53.704;10.004;2023-07-30T12:33:05;21.00;99.90
45066;DHT22;30830;53.704;10.004;2023-07-30T12:35:32;21.10;99.90
45066;DHT22;30830;53.704;10.004;2023-07-30T12:37:58;21.10;99.90
45066;DHT22;30830;53.704;10.004;2023-07-30T12:40:24;21.00;99.90
45066;DHT22;30830;53.704;10.004;2023-07-30T12:42:49;21.00;99.90
45066;DHT22;30830;53.704;10.004;2023-07-30T12:45:15;20.90;99.90
45066;DHT22;30830;53.704;10.004;2023-07-30T12:47:41;20.90;99.90
45066;DHT22;30830;53.704;10.004;2023-07-30T12:50:07;20.80;99.90
45066;DHT22;30830;53.704;10.004;2023-07-30T12:52:33;20.70;99.90
45066;DHT22;30830;53.704;10.004;2023-07-30T12:55:00;20.60;99.90
45066;DHT22;30830;53.704;10.004;2023-07-30T12:57:25;20.50;99.90
45066;DHT22;30830;53.704;10.004;2023-07-30T12:59:51;20.40;99.90
45066;DHT22;30830;53.704;10.004;2023-07-30T13:02:16;20.40;99.90
45066;DHT22;30830;53.704;10.004;2023-07-30T13:04:42;20.30;99.90
45066;DHT22;30830;53.704;10.004;2023-07-30T13:07:08;20.20;99.90
45066;DHT22;30830;53.704;10.004;2023-07-30T13:09:33;20.10;99.90
45066;DHT22;30830;53.704;10.004;2023-07-30T13:11:59;20.00;99.90
45066;DHT22;30830;53.704;10.004;2023-07-30T13:14:24;19.90;99.90
45066;DHT22;30830;53.704;10.004;2023-07-30T13:16:50;19.80;99.90
45066;DHT22;30830;53.704;10.004;2023-07-30T13:19:15;19.70;99.90
45066;DHT22;30830;53.704;10.004;2023-07-30T13:21:41;19.50;99.90
45066;DHT22;30830;53.704;10.004;2023-07-30T13:24:06;19.30;99.90
45066;DHT22;30830;53.704;10.004;2023-07-30T13:26:32;19.00;99.90
45066;DHT22;30830;53.704;10.004;2023-07-30T13:28:58;18.60;99.90
45066;DHT22;30830;53.704;10.004;2023-07-30T13:31:23;18.10;99.90
45066;DHT22;30830;53.704;10.004;2023-07-30T13:33:49;17.80;99.90
45066;DHT22;30830;53.704;10.004;2023-07-30T13:36:16;17.60;99.90
45066;DHT22;30830;53.704;10.004;2023-07-30T13:38:42;17.50;99.90
45066;DHT22;30830;53.704;10.004;2023-07-30T13:41:08;17.40;99.90
45066;DHT22;30830;53.704;10.004;2023-07-30T13:43:34;17.20;99.90
45066;DHT22;30830;53.704;10.004;2023-07-30T13:45:59;17.10;99.90
45066;DHT22;30830;53.704;10.004;2023-07-30T13:48:26;17.00;99.90
45066;DHT22;30830;53.704;10.004;2023-07-30T13:50:52;16.90;99.90
45066;DHT22;30830;53.704;10.004;2023-07-30T13:53:18;16.90;99.90
45066;DHT22;30830;53.704;10.004;2023-07-30T13:55:44;16.90;99.90
45066;DHT22;30830;53.704;10.004;2023-07-30T13:58:09;16.90;99.90
45066;DHT22;30830;53.704;10.004;2023-07-30T14:00:35;17.00;99.90
45066;DHT22;30830;53.704;10.004;2023-07-30T14:03:01;17.00;99.90
45066;DHT22;30830;53.704;10.004;2023-07-30T14:05:28;16.90;99.90
45066;DHT22;30830;53.704;10.004;2023-07-30T14:07:54;16.90;99.90
45066;DHT22;30830;53.704;10.004;2023-07-30T14:10:22;16.90;99.90
45066;DHT22;30830;53.704;10.004;2023-07-30T14:12:48;16.90;99.90
45066;DHT22;30830;53.704;10.004;2023-07-30T14:15:14;17.00;99.90
45066;DHT22;30830;53.704;10.004;2023-07-30T14:17:41;16.90;99.90
45066;DHT22;30830;53.704;10.004;2023-07-30T14:20:07;17.00;99.90
45066;DHT22;30830;53.704;10.004;2023-07-30T14:22:34;16.90;99.90
45066;DHT22;30830;53.704;10.004;2023-07-30T14:27:30;17.10;99.90
45066;DHT22;30830;53.704;10.004;2023-07-30T14:29:56;17.30;99.90
45066;DHT22;30830;53.704;10.004;2023-07-30T14:32:23;17.30;99.90
45066;DHT22;30830;53.704;10.004;2023-07-30T14:34:48;17.30;99.90
45066;DHT22;30830;53.704;10.004;2023-07-30T14:37:14;17.30;99.90
45066;DHT22;30830;53.704;10.004;2023-07-30T14:39:40;17.40;99.90
45066;DHT22;30830;53.704;10.004;2023-07-30T14:42:06;17.50;99.90
45066;DHT22;30830;53.704;10.004;2023-07-30T14:44:32;17.40;99.90
45066;DHT22;30830;53.704;10.004;2023-07-30T14:46:58;17.40;99.90
45066;DHT22;30830;53.704;10.004;2023-07-30T14:49:24;17.40;99.90
45066;DHT22;30830;53.704;10.004;2023-07-30T14:51:49;17.50;99.90
45066;DHT22;30830;53.704;10.004;2023-07-30T14:54:17;17.50;99.90
45066;DHT22;30830;53.704;10.004;2023-07-30T14:56:43;17.60;99.90
45066;DHT22;30830;53.704;10.004;2023-07-30T14:59:09;17.70;99.90
45066;DHT22;30830;53.704;10.004;2023-07-30T15:01:34;17.70;99.90
45066;DHT22;30830;53.704;10.004;2023-07-30T15:04:00;17.70;99.90
45066;DHT22;30830;53.704;10.004;2023-07-30T15:06:26;17.70;99.90
45066;DHT22;30830;53.704;10.004;2023-07-30T15:08:54;17.70;99.90
45066;DHT22;30830;53.704;10.004;2023-07-30T15:11:19;17.80;99.90
45066;DHT22;30830;53.704;10.004;2023-07-30T15:13:45;17.80;99.90
45066;DHT22;30830;53.704;10.004;2023-07-30T15:16:10;17.70;99.90
45066;DHT22;30830;53.704;10.004;2023-07-30T15:18:36;17.70;99.90